Time;durP1;ratioP1;P1;durP2;ratioP2;P2;SDS_P1;SDS_P2;PMS_P1;PMS_P2;Temp;Humidity;BMP_temperature;BMP_pressure;BME280_temperature;BME280_humidity;BME280_pressure;Samples;Min_cycle;Max_cycle;Signal;HPM_P1;HPM_P2
2023/07/22 00:00:06;;;;;;;6.95;2.90;;;;;;;;;;5014177;28;20095;-76
2023/07/22 00:02:31;;;;;;;11.57;3.08;;;;;;;;;;5015085;28;20088;-77
2023/07/22 00:04:57;;;;;;;7.40;3.20;;;;;;;;;;5015049;28;20033;-75
2023/07/22 00:07:22;;;;;;;7.72;3.35;;;;;;;;;;5015030;28;20295;-76
2023/07/22 00:09:50;;;;;;;6.82;3.03;;;;;;;;;;5013792;28;20396;-75
2023/07/22 00:12:15;;;;;;;11.43;4.68;;;;;;;;;;5013976;28;20071;-77
2023/07/22 00:14:41;;;;;;;5.00;2.72;;;;;;;;;;4981224;28;20030;-75
2023/07/22 00:17:07;;;;;;;10.20;3.33;;;;;;;;;;5015016;28;20022;-77
2023/07/22 00:19:33;;;;;;;6.28;3.35;;;;;;;;;;5014017;28;20056;-75
2023/07/22 00:21:59;;;;;;;5.70;3.22;;;;;;;;;;5014955;28;20512;-75
2023/07/22 00:24:25;;;;;;;6.63;3.13;;;;;;;;;;5014964;28;20064;-76
2023/07/22 00:26:51;;;;;;;10.77;3.10;;;;;;;;;;5014933;28;20037;-77
2023/07/22 00:29:16;;;;;;;14.15;5.43;;;;;;;;;;5013702;28;20550;-76
2023/07/22 00:31:42;;;;;;;6.97;3.50;;;;;;;;;;5014685;28;20500;-75
2023/07/22 00:34:09;;;;;;;5.03;3.47;;;;;;;;;;4997287;28;20503;-75
2023/07/22 00:36:34;;;;;;;9.45;4.13;;;;;;;;;;4996937;28;20030;-77
2023/07/22 00:39:01;;;;;;;5.70;3.80;;;;;;;;;;4997371;28;20489;-76
2023/07/22 00:41:27;;;;;;;5.32;3.58;;;;;;;;;;5013306;28;20038;-77
2023/07/22 00:43:52;;;;;;;10.95;5.82;;;;;;;;;;5014561;28;20032;-77
2023/07/22 00:46:18;;;;;;;8.15;4.47;;;;;;;;;;5014482;28;20100;-75
2023/07/22 00:48:44;;;;;;;12.93;5.53;;;;;;;;;;5013277;28;20175;-77
2023/07/22 00:51:09;;;;;;;8.07;4.40;;;;;;;;;;4996909;28;20057;-77
2023/07/22 00:53:35;;;;;;;9.82;4.40;;;;;;;;;;5013244;28;20473;-75
2023/07/22 00:56:01;;;;;;;6.03;4.35;;;;;;;;;;5012955;28;20421;-76
2023/07/22 00:58:27;;;;;;;12.32;4.45;;;;;;;;;;5012998;28;20072;-75
2023/07/22 01:00:52;;;;;;;6.03;4.28;;;;;;;;;;5012632;28;20179;-77
2023/07/22 01:03:18;;;;;;;7.25;4.20;;;;;;;;;;5012741;28;20029;-77
2023/07/22 01:05:45;;;;;;;13.30;4.93;;;;;;;;;;5012682;28;20481;-77
2023/07/22 01:08:11;;;;;;;9.57;4.72;;;;;;;;;;5014304;28;20033;-76
2023/07/22 01:10:37;;;;;;;7.20;4.38;;;;;;;;;;5013006;28;20036;-77
2023/07/22 01:13:02;;;;;;;10.45;4.65;;;;;;;;;;5013242;28;20440;-76
2023/07/22 01:15:28;;;;;;;11.75;5.20;;;;;;;;;;4996983;28;20511;-77
2023/07/22 01:17:56;;;;;;;7.95;4.60;;;;;;;;;;4996671;28;20477;-77
2023/07/22 01:20:22;;;;;;;6.75;4.78;;;;;;;;;;5014132;28;20034;-74
2023/07/22 01:22:50;;;;;;;10.57;5.10;;;;;;;;;;5012570;28;20026;-77
2023/07/22 01:25:16;;;;;;;8.40;4.63;;;;;;;;;;5012403;28;20068;-77
2023/07/22 01:27:43;;;;;;;9.45;5.03;;;;;;;;;;5012459;28;20505;-76
2023/07/22 01:30:09;;;;;;;10.63;5.40;;;;;;;;;;5012354;28;20026;-77
2023/07/22 01:32:35;;;;;;;7.68;4.82;;;;;;;;;;5012228;28;20072;-76
2023/07/22 01:35:00;;;;;;;8.63;4.90;;;;;;;;;;5011998;28;20490;-76
2023/07/22 01:37:26;;;;;;;7.05;5.10;;;;;;;;;;4995760;28;20037;-76
2023/07/22 01:39:53;;;;;;;9.75;5.50;;;;;;;;;;5012134;28;20377;-75
2023/07/22 01:42:18;;;;;;;11.13;5.13;;;;;;;;;;5011978;28;20029;-76
2023/07/22 01:44:43;;;;;;;11.95;5.53;;;;;;;;;;5012296;28;20041;-77
2023/07/22 01:47:09;;;;;;;12.63;5.72;;;;;;;;;;5013548;28;20050;-75
2023/07/22 01:49:35;;;;;;;8.18;5.60;;;;;;;;;;5013072;28;20030;-76
2023/07/22 01:52:00;;;;;;;8.13;4.85;;;;;;;;;;5013785;28;20033;-75
2023/07/22 01:54:26;;;;;;;8.55;5.68;;;;;;;;;;5014643;28;20096;-75
2023/07/22 01:56:51;;;;;;;8.40;5.03;;;;;;;;;;5001410;28;20064;-75
2023/07/22 01:59:17;;;;;;;9.60;5.55;;;;;;;;;;5005862;28;20040;-76
2023/07/22 02:01:42;;;;;;;10.45;5.60;;;;;;;;;;5012860;28;20030;-75
2023/07/22 02:04:08;;;;;;;7.38;5.53;;;;;;;;;;5029016;28;20396;-77
2023/07/22 02:06:34;;;;;;;14.20;6.18;;;;;;;;;;5005856;28;20030;-76
2023/07/22 02:09:06;;;;;;;8.90;4.93;;;;;;;;;;5016038;28;20030;-75
2023/07/22 02:11:31;;;;;;;9.55;5.30;;;;;;;;;;4997838;28;20034;-77
2023/07/22 02:13:57;;;;;;;12.75;5.78;;;;;;;;;;5013685;28;20080;-77
2023/07/22 02:16:22;;;;;;;14.68;5.32;;;;;;;;;;5013686;28;20022;-77
2023/07/22 02:18:48;;;;;;;15.48;6.28;;;;;;;;;;4995790;28;20034;-77
2023/07/22 02:21:13;;;;;;;15.73;5.38;;;;;;;;;;5013373;28;20282;-75
2023/07/22 02:23:39;;;;;;;11.98;5.53;;;;;;;;;;5013293;28;20113;-77
2023/07/22 02:26:05;;;;;;;8.82;5.13;;;;;;;;;;5013147;28;20459;-76
2023/07/22 02:28:30;;;;;;;7.82;5.25;;;;;;;;;;4995502;28;20037;-76
2023/07/22 02:31:02;;;;;;;11.52;5.88;;;;;;;;;;4995620;28;20065;-76
2023/07/22 02:33:27;;;;;;;11.13;5.90;;;;;;;;;;5011779;28;20112;-76
2023/07/22 02:35:53;;;;;;;12.02;6.18;;;;;;;;;;5012761;28;20089;-76
2023/07/22 02:38:18;;;;;;;9.23;4.95;;;;;;;;;;4995416;28;20034;-76
2023/07/22 02:40:44;;;;;;;9.32;5.72;;;;;;;;;;5012843;28;20481;-75
2023/07/22 02:43:10;;;;;;;8.05;5.70;;;;;;;;;;5011431;28;20034;-76
2023/07/22 02:45:36;;;;;;;11.48;5.40;;;;;;;;;;5012425;28;20041;-76
2023/07/22 02:48:01;;;;;;;10.30;5.85;;;;;;;;;;5011121;28;20034;-76
2023/07/22 02:50:27;;;;;;;10.27;5.03;;;;;;;;;;5012431;28;20028;-76
2023/07/22 02:52:52;;;;;;;9.85;5.63;;;;;;;;;;5012519;28;20026;-76
2023/07/22 02:55:18;;;;;;;9.93;5.65;;;;;;;;;;5010967;28;20101;-76
2023/07/22 02:57:46;;;;;;;10.35;5.28;;;;;;;;;;5011257;28;20026;-76
2023/07/22 03:00:12;;;;;;;11.32;5.45;;;;;;;;;;5010939;28;20109;-76
2023/07/22 03:02:38;;;;;;;13.10;5.53;;;;;;;;;;5011065;28;20034;-76
2023/07/22 03:05:07;;;;;;;11.15;5.53;;;;;;;;;;5011913;28;20084;-76
2023/07/22 03:07:33;;;;;;;10.32;5.47;;;;;;;;;;5010719;28;20034;-76
2023/07/22 03:09:59;;;;;;;10.43;5.57;;;;;;;;;;5011801;28;20018;-77
2023/07/22 03:12:24;;;;;;;10.38;5.18;;;;;;;;;;5011063;28;20045;-76
2023/07/22 03:14:50;;;;;;;10.43;5.47;;;;;;;;;;5011854;28;20032;-77
2023/07/22 03:17:17;;;;;;;8.20;5.85;;;;;;;;;;4978424;28;20526;-77
2023/07/22 03:19:43;;;;;;;8.40;5.28;;;;;;;;;;4994452;28;20076;-77
2023/07/22 03:22:09;;;;;;;10.60;6.00;;;;;;;;;;4978339;28;20061;-76
2023/07/22 03:24:35;;;;;;;9.80;5.72;;;;;;;;;;4994408;28;20037;-77
2023/07/22 03:27:01;;;;;;;8.98;5.40;;;;;;;;;;5010769;28;20034;-77
2023/07/22 03:29:27;;;;;;;8.13;5.63;;;;;;;;;;5013205;28;20080;-77
2023/07/22 03:31:53;;;;;;;9.63;5.97;;;;;;;;;;5019219;28;20026;-75
2023/07/22 03:34:18;;;;;;;8.02;5.07;;;;;;;;;;5017516;28;20032;-75
2023/07/22 03:36:44;;;;;;;8.07;4.72;;;;;;;;;;5014641;28;20065;-76
2023/07/22 03:39:09;;;;;;;13.68;5.30;;;;;;;;;;5014570;28;20104;-75
2023/07/22 03:41:35;;;;;;;11.63;5.68;;;;;;;;;;5015713;28;20084;-76
2023/07/22 03:44:00;;;;;;;8.60;4.95;;;;;;;;;;5015711;28;20587;-76
2023/07/22 03:46:26;;;;;;;7.65;4.90;;;;;;;;;;5014360;28;20041;-77
2023/07/22 03:48:51;;;;;;;13.32;5.55;;;;;;;;;;4982060;28;20105;-77
2023/07/22 03:51:17;;;;;;;7.43;5.25;;;;;;;;;;5015253;28;20030;-76
2023/07/22 03:53:42;;;;;;;8.07;5.53;;;;;;;;;;5015367;28;20481;-77
2023/07/22 03:56:08;;;;;;;10.52;5.88;;;;;;;;;;4997723;28;20030;-77
2023/07/22 03:58:33;;;;;;;10.00;5.93;;;;;;;;;;5013979;28;20465;-77
2023/07/22 04:00:59;;;;;;;9.45;6.15;;;;;;;;;;5015038;28;20045;-77
2023/07/22 04:03:25;;;;;;;11.43;6.20;;;;;;;;;;4997703;28;20038;-77
2023/07/22 04:05:55;;;;;;;8.70;5.85;;;;;;;;;;4982119;28;20532;-77
2023/07/22 04:08:20;;;;;;;13.15;5.40;;;;;;;;;;5014008;28;20092;-77
2023/07/22 04:10:52;;;;;;;11.05;6.22;;;;;;;;;;5015288;28;20034;-75
2023/07/22 04:13:18;;;;;;;11.88;5.57;;;;;;;;;;4998036;28;20021;-75
2023/07/22 04:15:44;;;;;;;11.45;6.05;;;;;;;;;;5014290;28;20481;-76
2023/07/22 04:18:09;;;;;;;10.73;5.70;;;;;;;;;;5014451;28;20029;-76
2023/07/22 04:20:35;;;;;;;8.48;5.78;;;;;;;;;;5014707;28;20492;-77
2023/07/22 04:23:00;;;;;;;10.05;5.50;;;;;;;;;;5016818;28;20057;-76
2023/07/22 04:25:28;;;;;;;9.43;5.20;;;;;;;;;;5016914;28;20026;-76
2023/07/22 04:27:53;;;;;;;12.68;5.38;;;;;;;;;;5016231;28;20105;-77
2023/07/22 04:30:20;;;;;;;8.27;5.53;;;;;;;;;;5015311;28;20037;-76
2023/07/22 04:32:48;;;;;;;8.73;5.80;;;;;;;;;;5022103;28;20113;-76
2023/07/22 04:35:14;;;;;;;9.57;5.70;;;;;;;;;;5030038;28;20030;-76
2023/07/22 04:37:39;;;;;;;11.73;5.65;;;;;;;;;;5017510;28;20060;-77
2023/07/22 04:40:08;;;;;;;11.13;5.95;;;;;;;;;;5034906;28;20034;-76
2023/07/22 04:42:34;;;;;;;11.85;6.45;;;;;;;;;;5035648;28;20022;-76
2023/07/22 04:44:59;;;;;;;12.15;6.10;;;;;;;;;;5035505;28;20296;-76
2023/07/22 04:47:24;;;;;;;9.52;5.88;;;;;;;;;;5032907;28;20042;-77
2023/07/22 04:49:50;;;;;;;11.80;5.93;;;;;;;;;;5006037;28;20038;-77
2023/07/22 04:52:17;;;;;;;7.90;5.55;;;;;;;;;;5014877;28;20527;-77
2023/07/22 04:54:42;;;;;;;19.75;6.43;;;;;;;;;;5014268;28;20037;-76
2023/07/22 04:57:08;;;;;;;8.80;6.03;;;;;;;;;;5014108;28;20025;-77
2023/07/22 04:59:33;;;;;;;10.82;6.18;;;;;;;;;;5014104;28;20030;-76
2023/07/22 05:01:59;;;;;;;12.90;6.78;;;;;;;;;;5028865;23;20053;-80
2023/07/22 05:04:25;;;;;;;8.70;6.35;;;;;;;;;;5018383;28;20022;-80
2023/07/22 05:06:50;;;;;;;11.20;6.10;;;;;;;;;;4998423;28;20034;-82
2023/07/22 05:09:16;;;;;;;10.40;6.40;;;;;;;;;;4982366;28;20030;-83
2023/07/22 05:11:41;;;;;;;9.65;6.00;;;;;;;;;;5015262;28;20531;-81
2023/07/22 05:14:07;;;;;;;9.20;6.00;;;;;;;;;;5014115;28;20476;-80
2023/07/22 05:16:33;;;;;;;9.48;5.57;;;;;;;;;;5014162;28;20018;-83
2023/07/22 05:18:58;;;;;;;12.85;5.75;;;;;;;;;;4997619;28;20484;-82
2023/07/22 05:21:24;;;;;;;14.43;6.35;;;;;;;;;;4998186;28;20037;-81
2023/07/22 05:23:49;;;;;;;8.77;6.20;;;;;;;;;;5014890;28;20052;-81
2023/07/22 05:26:15;;;;;;;12.20;6.20;;;;;;;;;;5013741;28;20030;-82
2023/07/22 05:28:41;;;;;;;12.80;6.57;;;;;;;;;;4997041;28;20034;-83
2023/07/22 05:31:07;;;;;;;13.35;5.97;;;;;;;;;;5014465;28;20125;-81
2023/07/22 05:33:32;;;;;;;10.93;6.07;;;;;;;;;;5014058;28;20033;-82
2023/07/22 05:35:58;;;;;;;10.70;6.03;;;;;;;;;;4980694;28;20045;-81
2023/07/22 05:38:24;;;;;;;11.27;5.82;;;;;;;;;;4997249;28;20123;-82
2023/07/22 05:40:51;;;;;;;10.95;5.70;;;;;;;;;;5012750;28;20033;-82
2023/07/22 05:43:17;;;;;;;10.68;5.72;;;;;;;;;;5013440;28;20049;-82
2023/07/22 05:45:42;;;;;;;14.25;5.47;;;;;;;;;;4996769;28;20029;-82
2023/07/22 05:48:08;;;;;;;10.60;5.70;;;;;;;;;;5012828;28;20444;-81
2023/07/22 05:50:34;;;;;;;14.50;6.25;;;;;;;;;;5014576;28;20101;-80
2023/07/22 05:52:59;;;;;;;9.75;5.70;;;;;;;;;;4979505;28;20137;-82
2023/07/22 05:55:26;;;;;;;15.48;6.28;;;;;;;;;;5013237;28;20026;-82
2023/07/22 05:57:52;;;;;;;13.05;6.43;;;;;;;;;;5013423;28;20049;-82
2023/07/22 06:00:18;;;;;;;11.82;6.00;;;;;;;;;;5013160;28;20030;-82
2023/07/22 06:02:44;;;;;;;14.73;6.20;;;;;;;;;;5013314;28;20409;-83
2023/07/22 06:05:10;;;;;;;12.10;5.72;;;;;;;;;;5013426;28;20026;-82
2023/07/22 06:07:36;;;;;;;10.10;6.40;;;;;;;;;;5014498;28;20025;-81
2023/07/22 06:10:02;;;;;;;11.77;6.15;;;;;;;;;;5013572;28;20032;-83
2023/07/22 06:12:27;;;;;;;12.50;6.28;;;;;;;;;;5014380;28;20057;-81
2023/07/22 06:14:53;;;;;;;13.68;6.13;;;;;;;;;;5014288;28;20096;-83
2023/07/22 06:17:20;;;;;;;17.45;6.53;;;;;;;;;;5014424;28;20382;-82
2023/07/22 06:19:45;;;;;;;20.40;6.10;;;;;;;;;;4997252;28;20040;-83
2023/07/22 06:22:11;;;;;;;10.05;5.75;;;;;;;;;;4998272;28;20117;-82
2023/07/22 06:24:37;;;;;;;9.35;5.50;;;;;;;;;;5015195;28;20060;-81
2023/07/22 06:27:02;;;;;;;13.43;6.13;;;;;;;;;;4996860;28;20026;-82
2023/07/22 06:29:28;;;;;;;11.70;6.50;;;;;;;;;;4980128;28;20044;-83
2023/07/22 06:31:56;;;;;;;11.70;6.10;;;;;;;;;;5012897;28;20058;-82
2023/07/22 06:34:22;;;;;;;15.10;5.75;;;;;;;;;;5013129;28;20053;-82
2023/07/22 06:36:47;;;;;;;10.18;5.78;;;;;;;;;;5014291;28;20073;-82
2023/07/22 06:39:13;;;;;;;16.25;6.35;;;;;;;;;;5014120;28;20405;-82
2023/07/22 06:41:39;;;;;;;12.75;6.53;;;;;;;;;;4996435;28;20038;-83
2023/07/22 06:44:05;;;;;;;11.57;5.57;;;;;;;;;;4995908;28;20496;-82
2023/07/22 06:46:31;;;;;;;13.27;6.20;;;;;;;;;;5012324;28;20164;-82
2023/07/22 06:48:56;;;;;;;11.85;6.10;;;;;;;;;;5014848;28;20588;-82
2023/07/22 06:51:22;;;;;;;10.68;5.97;;;;;;;;;;5014725;28;20508;-82
2023/07/22 06:53:48;;;;;;;11.20;7.00;;;;;;;;;;4982657;28;20026;-80
2023/07/22 06:56:14;;;;;;;9.88;5.25;;;;;;;;;;5018144;28;20022;-80
2023/07/22 06:58:39;;;;;;;11.60;5.13;;;;;;;;;;4999427;28;20492;-82
2023/07/22 07:01:05;;;;;;;12.43;5.55;;;;;;;;;;4985197;28;20069;-82
2023/07/22 07:03:31;;;;;;;10.30;5.20;;;;;;;;;;5005869;28;20109;-82
2023/07/22 07:05:57;;;;;;;9.80;5.65;;;;;;;;;;5011582;28;20056;-82
2023/07/22 07:08:23;;;;;;;8.77;4.70;;;;;;;;;;5026339;28;20090;-81
2023/07/22 07:10:49;;;;;;;8.50;4.85;;;;;;;;;;5018274;28;20048;-82
2023/07/22 07:13:14;;;;;;;10.07;4.25;;;;;;;;;;5020066;28;20037;-81
2023/07/22 07:15:40;;;;;;;10.80;5.60;;;;;;;;;;5006990;28;20018;-81
2023/07/22 07:18:06;;;;;;;9.20;5.32;;;;;;;;;;5024217;28;20308;-81
2023/07/22 07:20:32;;;;;;;16.33;4.80;;;;;;;;;;5039581;28;20021;-81
2023/07/22 07:22:57;;;;;;;7.88;4.57;;;;;;;;;;5006160;28;20030;-82
2023/07/22 07:25:23;;;;;;;14.43;4.80;;;;;;;;;;5002439;28;20034;-82
2023/07/22 07:27:48;;;;;;;11.05;4.88;;;;;;;;;;5000880;28;20053;-82
2023/07/22 07:30:14;;;;;;;8.93;4.20;;;;;;;;;;5014367;28;20041;-81
2023/07/22 07:32:40;;;;;;;9.80;4.72;;;;;;;;;;5028784;28;20102;-81
2023/07/22 07:35:06;;;;;;;9.88;4.97;;;;;;;;;;5018601;28;20402;-82
2023/07/22 07:37:32;;;;;;;12.20;4.13;;;;;;;;;;4983958;28;20041;-81
2023/07/22 07:39:59;;;;;;;9.13;4.45;;;;;;;;;;5016761;28;20121;-81
2023/07/22 07:42:28;;;;;;;11.90;4.70;;;;;;;;;;5000025;28;20038;-81
2023/07/22 07:44:54;;;;;;;9.68;3.70;;;;;;;;;;5016040;28;20106;-81
2023/07/22 07:47:19;;;;;;;5.93;3.40;;;;;;;;;;5016058;28;20132;-82
2023/07/22 07:49:45;;;;;;;7.25;4.03;;;;;;;;;;5022467;28;20030;-81
2023/07/22 07:52:11;;;;;;;9.18;3.70;;;;;;;;;;4984905;28;20030;-83
2023/07/22 07:54:36;;;;;;;5.07;3.08;;;;;;;;;;4999918;28;20030;-82
2023/07/22 07:57:02;;;;;;;6.25;3.38;;;;;;;;;;5016148;28;20101;-82
2023/07/22 07:59:28;;;;;;;7.90;3.67;;;;;;;;;;5017275;28;20408;-82
2023/07/22 08:01:54;;;;;;;6.28;3.53;;;;;;;;;;5015142;28;20038;-82
2023/07/22 08:04:19;;;;;;;11.15;3.50;;;;;;;;;;4999150;28;20037;-81
2023/07/22 08:06:45;;;;;;;6.70;3.15;;;;;;;;;;4982738;28;20022;-82
2023/07/22 08:09:16;;;;;;;6.80;3.28;;;;;;;;;;5016381;28;20037;-83
2023/07/22 08:11:41;;;;;;;7.93;3.28;;;;;;;;;;5014927;28;20026;-81
2023/07/22 08:14:08;;;;;;;7.60;3.20;;;;;;;;;;4999020;28;20057;-81
2023/07/22 08:16:33;;;;;;;9.77;3.75;;;;;;;;;;4998370;28;20030;-82
2023/07/22 08:18:59;;;;;;;6.60;3.45;;;;;;;;;;5014831;28;20400;-82
2023/07/22 08:21:24;;;;;;;6.57;3.33;;;;;;;;;;5015005;28;20605;-83
2023/07/22 08:23:50;;;;;;;9.45;3.50;;;;;;;;;;4982382;28;20030;-81
2023/07/22 08:26:20;;;;;;;8.07;3.42;;;;;;;;;;5014388;28;20382;-82
2023/07/22 08:28:46;;;;;;;8.52;3.70;;;;;;;;;;4998135;28;20395;-84
2023/07/22 08:31:12;;;;;;;7.43;3.20;;;;;;;;;;5015845;28;20022;-81
2023/07/22 08:33:37;;;;;;;5.60;3.35;;;;;;;;;;5015004;28;20056;-82
2023/07/22 08:36:03;;;;;;;6.10;3.70;;;;;;;;;;5014425;28;20030;-83
2023/07/22 08:38:29;;;;;;;9.55;4.18;;;;;;;;;;5015683;28;20643;-82
2023/07/22 08:40:54;;;;;;;9.02;3.40;;;;;;;;;;5015334;28;20053;-82
2023/07/22 08:43:21;;;;;;;8.20;3.60;;;;;;;;;;5014541;28;20038;-83
2023/07/22 08:45:48;;;;;;;7.03;3.92;;;;;;;;;;4981872;28;20034;-82
2023/07/22 08:48:15;;;;;;;9.85;4.35;;;;;;;;;;4981794;28;20133;-83
2023/07/22 08:50:44;;;;;;;9.43;4.47;;;;;;;;;;4997960;28;20084;-80
2023/07/22 08:53:09;;;;;;;;;;;;;;;;;;4982267;28;20065;-81
2023/07/22 08:55:35;;;;;;;6.03;3.45;;;;;;;;;;4982055;28;20356;-83
2023/07/22 08:58:01;;;;;;;8.07;3.50;;;;;;;;;;4997814;28;20030;-82
2023/07/22 09:00:28;;;;;;;6.70;3.53;;;;;;;;;;5014085;28;20433;-81
2023/07/22 09:02:56;;;;;;;6.00;3.60;;;;;;;;;;4999057;28;20033;-82
2023/07/22 09:05:22;;;;;;;7.82;4.53;;;;;;;;;;4982760;28;20037;-83
2023/07/22 09:07:48;;;;;;;7.35;3.53;;;;;;;;;;5014890;28;20502;-82
2023/07/22 09:10:15;;;;;;;8.80;3.70;;;;;;;;;;4983423;28;20034;-80
2023/07/22 09:12:41;;;;;;;7.55;3.60;;;;;;;;;;5018446;28;20033;-82
2023/07/22 09:15:11;;;;;;;6.28;3.67;;;;;;;;;;5002940;28;20056;-81
2023/07/22 09:17:38;;;;;;;8.65;3.50;;;;;;;;;;5001796;28;20029;-82
2023/07/22 09:20:05;;;;;;;6.85;3.17;;;;;;;;;;5018358;28;20029;-82
2023/07/22 09:22:31;;;;;;;7.55;3.08;;;;;;;;;;5000216;28;20546;-81
2023/07/22 09:25:23;;;;;;;6.65;3.50;;;;;;;;;;5017047;28;20481;-82
2023/07/22 09:27:49;;;;;;;6.05;3.42;;;;;;;;;;4997911;28;20500;-82
2023/07/22 09:30:22;;;;;;;9.25;3.15;;;;;;;;;;5017047;28;20025;-82
2023/07/22 09:32:48;;;;;;;9.35;3.25;;;;;;;;;;5015303;28;20579;-82
2023/07/22 09:35:14;;;;;;;6.10;2.97;;;;;;;;;;5014856;28;20045;-80
2023/07/22 09:37:40;;;;;;;4.72;2.72;;;;;;;;;;4999247;28;20404;-81
2023/07/22 09:40:16;;;;;;;7.15;2.90;;;;;;;;;;4998524;28;20457;-80
2023/07/22 09:42:46;;;;;;;10.05;3.13;;;;;;;;;;5002315;28;20089;-82
2023/07/22 09:45:12;;;;;;;6.07;3.00;;;;;;;;;;5015297;28;20380;-81
2023/07/22 09:47:44;;;;;;;4.60;2.67;;;;;;;;;;5020242;28;20113;-81
2023/07/22 09:50:11;;;;;;;7.47;3.00;;;;;;;;;;5013542;28;20029;-82
2023/07/22 09:52:47;;;;;;;9.80;3.20;;;;;;;;;;5014166;28;20096;-82
2023/07/22 09:55:20;;;;;;;6.35;2.95;;;;;;;;;;5018597;28;20076;-82
2023/07/22 09:57:47;;;;;;;5.50;2.97;;;;;;;;;;5015753;28;20030;-81
2023/07/22 10:00:19;;;;;;;8.93;2.60;;;;;;;;;;5019850;28;20113;-82
2023/07/22 10:02:45;;;;;;;5.00;2.80;;;;;;;;;;5036762;28;20105;-81
2023/07/22 10:05:16;;;;;;;5.70;3.22;;;;;;;;;;5035153;28;20026;-82
2023/07/22 10:07:52;;;;;;;6.03;2.72;;;;;;;;;;5035048;28;20113;-82
2023/07/22 10:10:19;;;;;;;5.53;2.90;;;;;;;;;;5018100;28;20044;-81
2023/07/22 10:12:45;;;;;;;4.85;2.38;;;;;;;;;;5031448;28;20030;-82
2023/07/22 10:15:12;;;;;;;6.25;2.72;;;;;;;;;;5019928;28;20060;-82
2023/07/22 10:17:38;;;;;;;4.40;2.55;;;;;;;;;;4997389;28;20489;-81
2023/07/22 10:20:06;;;;;;;5.75;2.53;;;;;;;;;;5013410;28;20515;-82
2023/07/22 10:22:34;;;;;;;8.13;3.03;;;;;;;;;;4996616;28;20038;-81
2023/07/22 10:25:01;;;;;;;4.97;2.58;;;;;;;;;;4996771;28;20489;-81
2023/07/22 10:27:28;;;;;;;5.80;2.50;;;;;;;;;;4980321;28;20485;-83
2023/07/22 10:29:54;;;;;;;5.70;2.67;;;;;;;;;;4996789;28;20026;-82
2023/07/22 10:32:20;;;;;;;5.00;2.22;;;;;;;;;;5012763;28;20125;-82
2023/07/22 10:34:46;;;;;;;4.88;2.45;;;;;;;;;;4995938;28;20148;-81
2023/07/22 10:37:11;;;;;;;4.93;2.75;;;;;;;;;;5011994;28;20026;-81
2023/07/22 10:39:37;;;;;;;5.22;2.50;;;;;;;;;;5012155;28;20455;-80
2023/07/22 10:42:04;;;;;;;5.18;2.70;;;;;;;;;;5014239;28;20021;-80
2023/07/22 10:44:33;;;;;;;5.90;2.70;;;;;;;;;;5013521;28;20411;-81
2023/07/22 10:46:59;;;;;;;5.90;3.15;;;;;;;;;;5012002;28;20058;-80
2023/07/22 10:49:41;;;;;;;5.20;2.97;;;;;;;;;;5012117;28;20129;-81
2023/07/22 10:52:07;;;;;;;5.22;2.55;;;;;;;;;;4995337;28;20444;-82
2023/07/22 10:54:36;;;;;;;5.25;2.72;;;;;;;;;;5011430;28;20064;-82
2023/07/22 10:57:17;;;;;;;3.60;2.20;;;;;;;;;;5011958;28;20036;-82
2023/07/22 10:59:51;;;;;;;5.43;2.42;;;;;;;;;;4979677;28;20117;-82
2023/07/22 11:02:28;;;;;;;5.20;2.60;;;;;;;;;;5004782;23;20045;-77
2023/07/22 11:04:58;;;;;;;3.95;2.33;;;;;;;;;;4978040;28;20048;-78
2023/07/22 11:07:41;;;;;;;5.05;2.55;;;;;;;;;;4978280;28;20030;-78
2023/07/22 11:10:15;;;;;;;4.18;2.80;;;;;;;;;;4994715;28;20042;-78
2023/07/22 11:12:42;;;;;;;5.78;2.70;;;;;;;;;;4991156;28;20037;-78
2023/07/22 11:15:09;;;;;;;5.22;2.30;;;;;;;;;;4958876;28;20157;-78
2023/07/22 11:17:34;;;;;;;3.38;2.13;;;;;;;;;;4991345;28;20482;-78
2023/07/22 11:20:01;;;;;;;4.47;2.35;;;;;;;;;;4992303;28;20030;-77
2023/07/22 11:22:30;;;;;;;5.40;2.50;;;;;;;;;;4974744;28;20077;-80
2023/07/22 11:24:58;;;;;;;5.70;2.22;;;;;;;;;;4974604;28;20247;-77
2023/07/22 11:27:24;;;;;;;4.30;2.15;;;;;;;;;;5007268;28;20127;-77
2023/07/22 11:29:50;;;;;;;4.88;2.30;;;;;;;;;;4974669;28;20126;-78
2023/07/22 11:32:16;;;;;;;4.45;2.30;;;;;;;;;;4958717;28;20038;-75
2023/07/22 11:34:44;;;;;;;5.68;2.75;;;;;;;;;;4990501;28;20035;-76
2023/07/22 11:37:10;;;;;;;4.47;2.40;;;;;;;;;;4974577;28;20065;-78
2023/07/22 11:39:37;;;;;;;4.18;2.20;;;;;;;;;;5006914;28;20061;-78
2023/07/22 11:42:03;;;;;;;5.68;2.70;;;;;;;;;;4991886;28;20039;-78
2023/07/22 11:44:29;;;;;;;4.45;2.75;;;;;;;;;;4974551;28;20249;-78
2023/07/22 11:46:59;;;;;;;5.88;2.83;;;;;;;;;;4991821;28;20113;-78
2023/07/22 11:49:25;;;;;;;6.20;2.72;;;;;;;;;;4958154;28;20146;-78
2023/07/22 11:51:53;;;;;;;5.45;2.75;;;;;;;;;;4961787;28;20034;-78
2023/07/22 11:54:22;;;;;;;5.88;2.08;;;;;;;;;;5010687;28;20035;-78
2023/07/22 11:56:48;;;;;;;4.65;2.53;;;;;;;;;;4977589;28;20480;-76
2023/07/22 11:59:14;;;;;;;7.82;2.47;;;;;;;;;;5010579;28;20030;-77
2023/07/22 12:01:42;;;;;;;4.82;2.53;;;;;;;;;;4978052;28;20067;-78
2023/07/22 12:04:14;;;;;;;5.95;2.72;;;;;;;;;;4978068;28;20085;-77
2023/07/22 12:06:40;;;;;;;5.85;2.92;;;;;;;;;;4961913;28;20037;-78
2023/07/22 12:09:10;;;;;;;4.85;2.75;;;;;;;;;;4994251;28;20041;-77
2023/07/22 12:11:36;;;;;;;4.90;2.28;;;;;;;;;;4978033;28;20038;-77
2023/07/22 12:14:09;;;;;;;5.15;2.42;;;;;;;;;;4993978;28;20088;-76
2023/07/22 12:16:39;;;;;;;11.45;2.72;;;;;;;;;;4993728;28;20070;-76
2023/07/22 12:19:08;;;;;;;4.38;2.33;;;;;;;;;;4978454;28;20027;-77
2023/07/22 12:21:34;;;;;;;3.70;2.42;;;;;;;;;;4995701;28;20061;-78
2023/07/22 12:24:00;;;;;;;4.22;2.40;;;;;;;;;;4978393;28;20070;-78
2023/07/22 12:26:26;;;;;;;5.38;2.70;;;;;;;;;;5010363;28;20172;-77
2023/07/22 12:29:17;;;;;;;7.00;2.35;;;;;;;;;;5010418;28;20034;-77
2023/07/22 12:31:44;;;;;;;5.97;2.70;;;;;;;;;;4977689;28;20101;-78
2023/07/22 12:34:09;;;;;;;4.95;2.47;;;;;;;;;;4961445;28;20121;-77
2023/07/22 12:36:35;;;;;;;6.05;2.40;;;;;;;;;;4977268;28;20061;-77
2023/07/22 12:39:04;;;;;;;5.80;2.78;;;;;;;;;;4961982;28;20040;-77
2023/07/22 12:41:30;;;;;;;5.32;2.78;;;;;;;;;;4993549;28;20077;-77
2023/07/22 12:43:56;;;;;;;6.05;2.70;;;;;;;;;;4977532;28;20034;-77
2023/07/22 12:46:26;;;;;;;4.78;2.63;;;;;;;;;;4976913;28;20416;-78
2023/07/22 12:48:52;;;;;;;5.28;2.80;;;;;;;;;;4960880;28;20034;-75
2023/07/22 12:51:18;;;;;;;5.82;2.72;;;;;;;;;;4977013;28;20559;-78
2023/07/22 12:53:44;;;;;;;6.32;2.78;;;;;;;;;;4993140;28;20030;-77
2023/07/22 12:56:10;;;;;;;5.63;2.92;;;;;;;;;;4960957;28;20385;-77
2023/07/22 12:58:36;;;;;;;4.75;2.47;;;;;;;;;;4993177;28;20293;-76
2023/07/22 13:01:02;;;;;;;5.47;2.42;;;;;;;;;;4992745;28;20188;-76
2023/07/22 13:03:28;;;;;;;4.22;2.38;;;;;;;;;;4976975;28;20038;-76
2023/07/22 13:05:54;;;;;;;4.30;2.40;;;;;;;;;;4960758;28;20401;-76
2023/07/22 13:08:20;;;;;;;5.47;2.72;;;;;;;;;;4993208;28;20030;-76
2023/07/22 13:10:47;;;;;;;6.65;2.55;;;;;;;;;;4992930;28;20026;-77
2023/07/22 13:13:12;;;;;;;6.13;2.70;;;;;;;;;;4994152;28;20026;-75
2023/07/22 13:15:38;;;;;;;8.63;3.10;;;;;;;;;;4992669;28;20109;-78
2023/07/22 13:18:04;;;;;;;5.25;2.67;;;;;;;;;;5009013;28;20443;-78
2023/07/22 13:20:30;;;;;;;4.97;2.88;;;;;;;;;;4992780;28;20393;-78
2023/07/22 13:22:55;;;;;;;4.43;2.45;;;;;;;;;;4960701;28;20341;-78
2023/07/22 13:25:21;;;;;;;4.78;2.55;;;;;;;;;;4993760;28;20437;-78
2023/07/22 13:27:50;;;;;;;5.82;2.58;;;;;;;;;;4994252;28;20026;-78
2023/07/22 13:30:20;;;;;;;5.65;2.88;;;;;;;;;;4995120;28;20022;-78
2023/07/22 13:32:46;;;;;;;4.47;2.47;;;;;;;;;;4960820;28;20035;-78
2023/07/22 13:35:11;;;;;;;5.07;2.60;;;;;;;;;;4976142;28;20030;-79
2023/07/22 13:37:37;;;;;;;6.13;3.10;;;;;;;;;;4976355;28;20401;-78
2023/07/22 13:40:09;;;;;;;4.63;2.70;;;;;;;;;;4992434;28;20022;-77
2023/07/22 13:42:38;;;;;;;6.45;2.95;;;;;;;;;;4976310;28;20034;-78
2023/07/22 13:45:04;;;;;;;4.75;2.97;;;;;;;;;;4992092;28;20026;-78
2023/07/22 13:47:30;;;;;;;5.50;2.97;;;;;;;;;;5008327;28;20500;-76
2023/07/22 13:49:56;;;;;;;6.18;2.67;;;;;;;;;;4993441;28;20037;-76
2023/07/22 13:52:21;;;;;;;6.90;2.80;;;;;;;;;;4993341;28;20030;-79
2023/07/22 13:54:50;;;;;;;6.55;3.20;;;;;;;;;;5008502;28;20449;-77
2023/07/22 13:57:19;;;;;;;4.68;2.75;;;;;;;;;;4976180;28;20042;-76
2023/07/22 13:59:45;;;;;;;5.40;2.65;;;;;;;;;;4991982;28;20026;-79
2023/07/22 14:02:13;;;;;;;6.82;2.97;;;;;;;;;;4993203;28;20038;-78
2023/07/22 14:04:39;;;;;;;5.35;2.92;;;;;;;;;;4975920;28;20493;-76
2023/07/22 14:07:04;;;;;;;4.95;3.30;;;;;;;;;;5008216;28;20034;-77
2023/07/22 14:09:30;;;;;;;5.20;2.58;;;;;;;;;;5008253;28;20118;-78
2023/07/22 14:12:03;;;;;;;4.38;2.60;;;;;;;;;;4992055;28;20026;-78
2023/07/22 14:14:29;;;;;;;5.68;3.05;;;;;;;;;;5007524;28;20031;-78
2023/07/22 14:16:55;;;;;;;4.07;2.38;;;;;;;;;;4991742;28;20044;-77
2023/07/22 14:19:21;;;;;;;5.50;2.70;;;;;;;;;;5008342;28;20589;-77
2023/07/22 14:21:47;;;;;;;4.22;2.63;;;;;;;;;;4975386;28;20106;-77
2023/07/22 14:24:13;;;;;;;5.80;3.00;;;;;;;;;;4975289;28;20248;-77
2023/07/22 14:26:39;;;;;;;7.68;2.92;;;;;;;;;;5007677;28;20027;-78
2023/07/22 14:29:05;;;;;;;10.13;3.13;;;;;;;;;;4992404;28;20027;-77
2023/07/22 14:31:31;;;;;;;4.80;2.70;;;;;;;;;;5007547;28;20338;-77
2023/07/22 14:33:56;;;;;;;4.63;2.70;;;;;;;;;;4975251;28;20026;-77